sensor_id;sensor_type;location;lat;lon;timestamp;P1;durP1;ratioP1;P2;durP2;ratioP2
21014;SDS011;19207;-23.482;-46.500;2022-11-30T00:00:14;13.95;;;7.35;;
21014;SDS011;19207;-23.482;-46.500;2022-11-30T00:03:01;15.05;;;7.90;;
21014;SDS011;19207;-23.482;-46.500;2022-11-30T00:05:47;16.65;;;8.18;;
21014;SDS011;19207;-23.482;-46.500;2022-11-30T00:08:33;15.70;;;7.90;;
21014;SDS011;19207;-23.482;-46.500;2022-11-30T00:11:20;17.75;;;8.63;;
21014;SDS011;19207;-23.482;-46.500;2022-11-30T00:14:06;16.67;;;8.85;;
21014;SDS011;19207;-23.482;-46.500;2022-11-30T00:16:52;22.15;;;10.25;;
21014;SDS011;19207;-23.482;-46.500;2022-11-30T00:19:39;22.90;;;11.40;;
21014;SDS011;19207;-23.482;-46.500;2022-11-30T00:22:26;21.85;;;11.90;;
21014;SDS011;19207;-23.482;-46.500;2022-11-30T00:25:12;25.92;;;13.10;;
21014;SDS011;19207;-23.482;-46.500;2022-11-30T00:27:59;22.80;;;11.73;;
21014;SDS011;19207;-23.482;-46.500;2022-11-30T00:30:55;24.45;;;10.82;;
21014;SDS011;19207;-23.482;-46.500;2022-11-30T00:33:41;26.27;;;10.43;;
21014;SDS011;19207;-23.482;-46.500;2022-11-30T00:36:27;23.52;;;11.02;;
21014;SDS011;19207;-23.482;-46.500;2022-11-30T00:39:14;24.35;;;14.40;;
21014;SDS011;19207;-23.482;-46.500;2022-11-30T00:42:00;37.75;;;15.05;;
21014;SDS011;19207;-23.482;-46.500;2022-11-30T00:44:48;26.20;;;17.90;;
21014;SDS011;19207;-23.482;-46.500;2022-11-30T00:47:35;28.77;;;17.02;;
21014;SDS011;19207;-23.482;-46.500;2022-11-30T00:50:21;27.50;;;16.30;;
21014;SDS011;19207;-23.482;-46.500;2022-11-30T00:53:09;31.02;;;18.23;;
21014;SDS011;19207;-23.482;-46.500;2022-11-30T00:55:55;37.05;;;19.05;;
21014;SDS011;19207;-23.482;-46.500;2022-11-30T00:58:41;31.35;;;19.12;;
21014;SDS011;19207;-23.482;-46.500;2022-11-30T01:01:28;39.97;;;22.60;;
21014;SDS011;19207;-23.482;-46.500;2022-11-30T01:04:15;42.55;;;23.42;;
21014;SDS011;19207;-23.482;-46.500;2022-11-30T01:07:02;48.63;;;26.17;;
21014;SDS011;19207;-23.482;-46.500;2022-11-30T01:09:48;42.67;;;26.15;;
21014;SDS011;19207;-23.482;-46.500;2022-11-30T01:12:34;46.75;;;24.48;;
21014;SDS011;19207;-23.482;-46.500;2022-11-30T01:15:20;39.88;;;23.83;;
21014;SDS011;19207;-23.482;-46.500;2022-11-30T01:18:08;45.92;;;23.85;;
21014;SDS011;19207;-23.482;-46.500;2022-11-30T01:20:54;40.40;;;23.60;;
21014;SDS011;19207;-23.482;-46.500;2022-11-30T01:23:41;46.63;;;22.70;;
21014;SDS011;19207;-23.482;-46.500;2022-11-30T01:26:28;46.30;;;24.98;;
21014;SDS011;19207;-23.482;-46.500;2022-11-30T01:29:14;44.03;;;23.40;;
21014;SDS011;19207;-23.482;-46.500;2022-11-30T01:32:00;47.50;;;22.02;;
21014;SDS011;19207;-23.482;-46.500;2022-11-30T01:34:47;44.33;;;21.52;;
21014;SDS011;19207;-23.482;-46.500;2022-11-30T01:37:33;44.97;;;22.08;;
21014;SDS011;19207;-23.482;-46.500;2022-11-30T01:40:20;38.45;;;21.35;;
21014;SDS011;19207;-23.482;-46.500;2022-11-30T01:43:10;56.72;;;26.17;;
21014;SDS011;19207;-23.482;-46.500;2022-11-30T01:45:57;69.72;;;28.58;;
21014;SDS011;19207;-23.482;-46.500;2022-11-30T01:48:43;68.80;;;27.40;;
21014;SDS011;19207;-23.482;-46.500;2022-11-30T01:51:35;78.87;;;24.12;;
21014;SDS011;19207;-23.482;-46.500;2022-11-30T01:54:23;59.13;;;19.45;;
21014;SDS011;19207;-23.482;-46.500;2022-11-30T02:00:22;55.75;;;19.08;;
21014;SDS011;19207;-23.482;-46.500;2022-11-30T02:06:04;36.92;;;15.38;;
21014;SDS011;19207;-23.482;-46.500;2022-11-30T02:08:51;34.35;;;17.35;;
21014;SDS011;19207;-23.482;-46.500;2022-11-30T02:11:38;44.42;;;17.35;;
21014;SDS011;19207;-23.482;-46.500;2022-11-30T02:14:32;27.90;;;15.13;;
21014;SDS011;19207;-23.482;-46.500;2022-11-30T02:23:00;24.90;;;13.23;;
21014;SDS011;19207;-23.482;-46.500;2022-11-30T02:29:11;38.25;;;14.00;;
21014;SDS011;19207;-23.482;-46.500;2022-11-30T02:34:51;64.75;;;18.60;;
21014;SDS011;19207;-23.482;-46.500;2022-11-30T02:37:38;71.37;;;17.95;;
21014;SDS011;19207;-23.482;-46.500;2022-11-30T02:40:25;54.28;;;16.92;;
21014;SDS011;19207;-23.482;-46.500;2022-11-30T02:43:12;53.63;;;16.83;;
21014;SDS011;19207;-23.482;-46.500;2022-11-30T02:49:13;33.42;;;12.48;;
21014;SDS011;19207;-23.482;-46.500;2022-11-30T02:52:02;38.17;;;14.75;;
21014;SDS011;19207;-23.482;-46.500;2022-11-30T02:54:50;34.50;;;14.48;;
21014;SDS011;19207;-23.482;-46.500;2022-11-30T02:57:36;40.05;;;14.90;;
21014;SDS011;19207;-23.482;-46.500;2022-11-30T03:00:22;37.42;;;16.27;;
21014;SDS011;19207;-23.482;-46.500;2022-11-30T03:03:09;31.15;;;13.68;;
21014;SDS011;19207;-23.482;-46.500;2022-11-30T03:05:56;31.80;;;13.88;;
21014;SDS011;19207;-23.482;-46.500;2022-11-30T03:08:43;32.83;;;14.80;;
21014;SDS011;19207;-23.482;-46.500;2022-11-30T03:11:30;35.97;;;16.23;;
21014;SDS011;19207;-23.482;-46.500;2022-11-30T03:14:16;36.85;;;17.60;;
21014;SDS011;19207;-23.482;-46.500;2022-11-30T03:17:03;36.90;;;16.20;;
21014;SDS011;19207;-23.482;-46.500;2022-11-30T03:19:51;34.25;;;15.75;;
21014;SDS011;19207;-23.482;-46.500;2022-11-30T03:22:37;36.83;;;17.40;;
21014;SDS011;19207;-23.482;-46.500;2022-11-30T03:25:24;33.45;;;16.40;;
21014;SDS011;19207;-23.482;-46.500;2022-11-30T03:28:11;37.25;;;18.30;;
21014;SDS011;19207;-23.482;-46.500;2022-11-30T03:30:58;44.85;;;20.20;;
21014;SDS011;19207;-23.482;-46.500;2022-11-30T03:33:44;38.47;;;19.48;;
21014;SDS011;19207;-23.482;-46.500;2022-11-30T03:36:31;32.70;;;16.83;;
21014;SDS011;19207;-23.482;-46.500;2022-11-30T03:39:17;35.25;;;18.48;;
21014;SDS011;19207;-23.482;-46.500;2022-11-30T03:42:04;30.70;;;15.45;;
21014;SDS011;19207;-23.482;-46.500;2022-11-30T03:44:51;27.58;;;14.25;;
21014;SDS011;19207;-23.482;-46.500;2022-11-30T03:47:39;22.67;;;13.18;;
21014;SDS011;19207;-23.482;-46.500;2022-11-30T03:50:25;20.50;;;10.88;;
21014;SDS011;19207;-23.482;-46.500;2022-11-30T03:53:12;23.20;;;11.73;;
21014;SDS011;19207;-23.482;-46.500;2022-11-30T03:55:59;24.77;;;10.40;;
21014;SDS011;19207;-23.482;-46.500;2022-11-30T03:58:46;17.00;;;8.77;;
21014;SDS011;19207;-23.482;-46.500;2022-11-30T04:01:33;17.23;;;9.30;;
21014;SDS011;19207;-23.482;-46.500;2022-11-30T04:04:20;19.60;;;10.05;;
21014;SDS011;19207;-23.482;-46.500;2022-11-30T04:07:07;17.70;;;10.40;;
21014;SDS011;19207;-23.482;-46.500;2022-11-30T04:09:54;18.40;;;8.88;;
21014;SDS011;19207;-23.482;-46.500;2022-11-30T04:12:41;15.18;;;9.40;;
21014;SDS011;19207;-23.482;-46.500;2022-11-30T04:15:27;18.87;;;9.57;;
21014;SDS011;19207;-23.482;-46.500;2022-11-30T04:18:14;18.67;;;9.73;;
21014;SDS011;19207;-23.482;-46.500;2022-11-30T04:21:01;19.00;;;9.52;;
21014;SDS011;19207;-23.482;-46.500;2022-11-30T04:23:48;16.27;;;8.13;;
21014;SDS011;19207;-23.482;-46.500;2022-11-30T04:26:35;14.82;;;7.45;;
21014;SDS011;19207;-23.482;-46.500;2022-11-30T04:29:22;22.55;;;9.25;;
21014;SDS011;19207;-23.482;-46.500;2022-11-30T04:32:09;20.00;;;10.32;;
21014;SDS011;19207;-23.482;-46.500;2022-11-30T04:34:56;18.02;;;10.05;;
21014;SDS011;19207;-23.482;-46.500;2022-11-30T04:37:42;23.25;;;9.82;;
21014;SDS011;19207;-23.482;-46.500;2022-11-30T04:40:29;19.58;;;9.02;;
21014;SDS011;19207;-23.482;-46.500;2022-11-30T04:43:16;17.12;;;9.10;;
21014;SDS011;19207;-23.482;-46.500;2022-11-30T04:46:03;32.83;;;13.90;;
21014;SDS011;19207;-23.482;-46.500;2022-11-30T04:48:49;53.42;;;20.73;;
21014;SDS011;19207;-23.482;-46.500;2022-11-30T04:51:36;56.70;;;20.52;;
21014;SDS011;19207;-23.482;-46.500;2022-11-30T04:54:23;78.78;;;23.62;;
21014;SDS011;19207;-23.482;-46.500;2022-11-30T04:57:10;86.07;;;24.65;;
21014;SDS011;19207;-23.482;-46.500;2022-11-30T04:59:56;44.00;;;14.55;;
21014;SDS011;19207;-23.482;-46.500;2022-11-30T05:02:43;26.23;;;10.98;;
21014;SDS011;19207;-23.482;-46.500;2022-11-30T05:05:30;17.90;;;7.60;;
21014;SDS011;19207;-23.482;-46.500;2022-11-30T05:08:16;23.12;;;10.40;;
21014;SDS011;19207;-23.482;-46.500;2022-11-30T05:11:03;21.65;;;9.82;;
21014;SDS011;19207;-23.482;-46.500;2022-11-30T05:13:49;9.63;;;5.32;;
21014;SDS011;19207;-23.482;-46.500;2022-11-30T05:16:36;6.55;;;4.10;;
21014;SDS011;19207;-23.482;-46.500;2022-11-30T05:19:23;8.13;;;5.28;;
21014;SDS011;19207;-23.482;-46.500;2022-11-30T05:22:09;7.40;;;4.07;;
21014;SDS011;19207;-23.482;-46.500;2022-11-30T05:24:55;7.43;;;4.53;;
21014;SDS011;19207;-23.482;-46.500;2022-11-30T05:27:42;7.45;;;4.85;;
21014;SDS011;19207;-23.482;-46.500;2022-11-30T05:30:29;9.60;;;5.20;;
21014;SDS011;19207;-23.482;-46.500;2022-11-30T05:33:16;13.32;;;6.37;;
21014;SDS011;19207;-23.482;-46.500;2022-11-30T05:36:02;24.48;;;7.95;;
21014;SDS011;19207;-23.482;-46.500;2022-11-30T05:38:49;14.43;;;6.90;;
21014;SDS011;19207;-23.482;-46.500;2022-11-30T05:41:36;12.48;;;6.87;;
21014;SDS011;19207;-23.482;-46.500;2022-11-30T05:44:22;17.73;;;8.07;;
21014;SDS011;19207;-23.482;-46.500;2022-11-30T05:47:10;17.58;;;7.50;;
21014;SDS011;19207;-23.482;-46.500;2022-11-30T05:49:57;36.85;;;12.48;;
21014;SDS011;19207;-23.482;-46.500;2022-11-30T05:52:43;12.45;;;6.10;;
21014;SDS011;19207;-23.482;-46.500;2022-11-30T05:55:30;15.45;;;6.97;;
21014;SDS011;19207;-23.482;-46.500;2022-11-30T05:58:18;51.05;;;16.08;;
21014;SDS011;19207;-23.482;-46.500;2022-11-30T06:01:05;22.02;;;7.43;;
21014;SDS011;19207;-23.482;-46.500;2022-11-30T06:03:52;14.68;;;7.15;;
21014;SDS011;19207;-23.482;-46.500;2022-11-30T06:06:39;19.60;;;7.50;;
21014;SDS011;19207;-23.482;-46.500;2022-11-30T06:09:27;11.30;;;5.65;;
21014;SDS011;19207;-23.482;-46.500;2022-11-30T06:12:14;10.50;;;5.47;;
21014;SDS011;19207;-23.482;-46.500;2022-11-30T06:15:01;23.35;;;9.70;;
21014;SDS011;19207;-23.482;-46.500;2022-11-30T06:17:48;21.58;;;8.60;;
21014;SDS011;19207;-23.482;-46.500;2022-11-30T06:20:35;17.23;;;7.07;;
21014;SDS011;19207;-23.482;-46.500;2022-11-30T06:23:22;14.45;;;6.55;;
21014;SDS011;19207;-23.482;-46.500;2022-11-30T06:26:09;10.27;;;5.80;;
21014;SDS011;19207;-23.482;-46.500;2022-11-30T06:28:56;8.82;;;5.22;;
21014;SDS011;19207;-23.482;-46.500;2022-11-30T06:31:44;10.90;;;4.90;;
21014;SDS011;19207;-23.482;-46.500;2022-11-30T06:34:31;11.57;;;5.00;;
21014;SDS011;19207;-23.482;-46.500;2022-11-30T06:37:17;11.95;;;5.00;;
21014;SDS011;19207;-23.482;-46.500;2022-11-30T06:40:04;13.35;;;5.47;;
21014;SDS011;19207;-23.482;-46.500;2022-11-30T06:42:51;15.15;;;5.65;;
21014;SDS011;19207;-23.482;-46.500;2022-11-30T06:45:37;12.57;;;5.40;;
21014;SDS011;19207;-23.482;-46.500;2022-11-30T06:48:24;7.80;;;4.93;;
21014;SDS011;19207;-23.482;-46.500;2022-11-30T06:51:11;11.20;;;6.37;;
21014;SDS011;19207;-23.482;-46.500;2022-11-30T06:53:58;11.32;;;6.43;;
21014;SDS011;19207;-23.482;-46.500;2022-11-30T06:56:45;12.32;;;6.50;;
21014;SDS011;19207;-23.482;-46.500;2022-11-30T06:59:32;16.80;;;7.05;;
21014;SDS011;19207;-23.482;-46.500;2022-11-30T07:02:22;15.98;;;8.07;;
21014;SDS011;19207;-23.482;-46.500;2022-11-30T07:05:08;13.60;;;7.05;;
21014;SDS011;19207;-23.482;-46.500;2022-11-30T07:07:55;11.25;;;5.70;;
21014;SDS011;19207;-23.482;-46.500;2022-11-30T07:10:43;13.35;;;6.82;;
21014;SDS011;19207;-23.482;-46.500;2022-11-30T07:13:30;14.13;;;7.28;;
21014;SDS011;19207;-23.482;-46.500;2022-11-30T07:16:17;12.13;;;6.80;;
21014;SDS011;19207;-23.482;-46.500;2022-11-30T07:19:03;14.60;;;8.45;;
21014;SDS011;19207;-23.482;-46.500;2022-11-30T07:21:50;15.20;;;7.72;;
21014;SDS011;19207;-23.482;-46.500;2022-11-30T07:24:36;11.45;;;6.82;;
21014;SDS011;19207;-23.482;-46.500;2022-11-30T07:27:41;17.55;;;8.55;;
21014;SDS011;19207;-23.482;-46.500;2022-11-30T07:30:29;15.43;;;8.35;;
21014;SDS011;19207;-23.482;-46.500;2022-11-30T07:33:16;15.43;;;8.82;;
21014;SDS011;19207;-23.482;-46.500;2022-11-30T07:36:03;17.40;;;10.60;;
21014;SDS011;19207;-23.482;-46.500;2022-11-30T07:38:50;15.70;;;9.90;;
21014;SDS011;19207;-23.482;-46.500;2022-11-30T07:41:37;14.23;;;7.12;;
21014;SDS011;19207;-23.482;-46.500;2022-11-30T07:44:24;15.82;;;6.50;;
21014;SDS011;19207;-23.482;-46.500;2022-11-30T07:47:11;15.63;;;6.70;;
21014;SDS011;19207;-23.482;-46.500;2022-11-30T07:49:57;10.27;;;6.00;;
21014;SDS011;19207;-23.482;-46.500;2022-11-30T07:52:44;11.85;;;6.00;;
21014;SDS011;19207;-23.482;-46.500;2022-11-30T07:55:31;11.80;;;6.90;;
21014;SDS011;19207;-23.482;-46.500;2022-11-30T07:58:18;18.37;;;8.10;;
21014;SDS011;19207;-23.482;-46.500;2022-11-30T08:01:08;15.82;;;8.20;;
21014;SDS011;19207;-23.482;-46.500;2022-11-30T08:03:56;17.23;;;8.30;;
21014;SDS011;19207;-23.482;-46.500;2022-11-30T08:06:43;27.05;;;11.35;;
21014;SDS011;19207;-23.482;-46.500;2022-11-30T08:09:29;26.90;;;12.07;;
21014;SDS011;19207;-23.482;-46.500;2022-11-30T08:12:16;20.20;;;10.18;;
21014;SDS011;19207;-23.482;-46.500;2022-11-30T08:15:02;28.33;;;11.48;;
21014;SDS011;19207;-23.482;-46.500;2022-11-30T08:17:49;26.98;;;13.13;;
21014;SDS011;19207;-23.482;-46.500;2022-11-30T08:20:39;30.05;;;12.60;;
21014;SDS011;19207;-23.482;-46.500;2022-11-30T08:23:33;22.50;;;12.57;;
21014;SDS011;19207;-23.482;-46.500;2022-11-30T08:26:20;24.33;;;13.00;;
21014;SDS011;19207;-23.482;-46.500;2022-11-30T08:29:08;25.85;;;12.60;;
21014;SDS011;19207;-23.482;-46.500;2022-11-30T08:31:58;27.10;;;12.57;;
21014;SDS011;19207;-23.482;-46.500;2022-11-30T08:34:45;28.02;;;14.02;;
21014;SDS011;19207;-23.482;-46.500;2022-11-30T08:37:34;26.45;;;13.77;;
21014;SDS011;19207;-23.482;-46.500;2022-11-30T08:40:21;27.02;;;13.27;;
21014;SDS011;19207;-23.482;-46.500;2022-11-30T08:43:08;29.17;;;13.55;;
21014;SDS011;19207;-23.482;-46.500;2022-11-30T08:45:55;26.08;;;13.38;;
21014;SDS011;19207;-23.482;-46.500;2022-11-30T08:48:41;29.05;;;14.48;;
21014;SDS011;19207;-23.482;-46.500;2022-11-30T08:51:28;27.45;;;14.25;;
21014;SDS011;19207;-23.482;-46.500;2022-11-30T08:54:15;25.33;;;13.90;;
21014;SDS011;19207;-23.482;-46.500;2022-11-30T08:57:02;28.62;;;14.25;;
21014;SDS011;19207;-23.482;-46.500;2022-11-30T08:59:48;27.62;;;11.85;;
21014;SDS011;19207;-23.482;-46.500;2022-11-30T09:02:35;23.70;;;11.38;;
21014;SDS011;19207;-23.482;-46.500;2022-11-30T09:05:22;26.33;;;10.82;;
21014;SDS011;19207;-23.482;-46.500;2022-11-30T09:08:10;20.48;;;10.43;;
21014;SDS011;19207;-23.482;-46.500;2022-11-30T09:10:56;22.20;;;11.07;;
21014;SDS011;19207;-23.482;-46.500;2022-11-30T09:13:43;26.27;;;10.73;;
21014;SDS011;19207;-23.482;-46.500;2022-11-30T09:16:30;20.08;;;10.68;;
21014;SDS011;19207;-23.482;-46.500;2022-11-30T09:19:17;21.45;;;11.95;;
21014;SDS011;19207;-23.482;-46.500;2022-11-30T09:22:04;19.98;;;11.63;;
21014;SDS011;19207;-23.482;-46.500;2022-11-30T09:24:50;21.55;;;11.98;;
21014;SDS011;19207;-23.482;-46.500;2022-11-30T09:27:37;24.42;;;12.18;;
21014;SDS011;19207;-23.482;-46.500;2022-11-30T09:30:24;22.35;;;12.27;;
21014;SDS011;19207;-23.482;-46.500;2022-11-30T09:33:10;23.02;;;10.90;;
21014;SDS011;19207;-23.482;-46.500;2022-11-30T09:35:58;21.70;;;10.77;;
21014;SDS011;19207;-23.482;-46.500;2022-11-30T09:38:44;23.05;;;11.52;;
21014;SDS011;19207;-23.482;-46.500;2022-11-30T09:44:29;23.73;;;11.38;;
21014;SDS011;19207;-23.482;-46.500;2022-11-30T09:50:14;22.50;;;12.10;;
21014;SDS011;19207;-23.482;-46.500;2022-11-30T09:53:04;21.52;;;11.25;;
21014;SDS011;19207;-23.482;-46.500;2022-11-30T09:55:52;25.95;;;12.98;;
21014;SDS011;19207;-23.482;-46.500;2022-11-30T09:58:42;17.62;;;11.30;;
21014;SDS011;19207;-23.482;-46.500;2022-11-30T10:01:30;20.40;;;10.50;;
21014;SDS011;19207;-23.482;-46.500;2022-11-30T10:10:10;26.83;;;12.50;;
21014;SDS011;19207;-23.482;-46.500;2022-11-30T10:13:04;30.05;;;11.00;;
21014;SDS011;19207;-23.482;-46.500;2022-11-30T10:30:15;27.35;;;14.02;;
21014;SDS011;19207;-23.482;-46.500;2022-11-30T10:33:05;30.98;;;15.07;;
21014;SDS011;19207;-23.482;-46.500;2022-11-30T10:35:57;28.50;;;14.30;;
21014;SDS011;19207;-23.482;-46.500;2022-11-30T10:38:48;24.85;;;13.02;;
21014;SDS011;19207;-23.482;-46.500;2022-11-30T10:41:36;26.55;;;12.48;;
21014;SDS011;19207;-23.482;-46.500;2022-11-30T10:44:28;24.70;;;13.43;;
21014;SDS011;19207;-23.482;-46.500;2022-11-30T10:47:21;27.45;;;13.50;;
21014;SDS011;19207;-23.482;-46.500;2022-11-30T10:50:09;32.58;;;16.00;;
21014;SDS011;19207;-23.482;-46.500;2022-11-30T10:52:59;26.17;;;13.70;;
21014;SDS011;19207;-23.482;-46.500;2022-11-30T10:55:55;27.90;;;12.85;;
21014;SDS011;19207;-23.482;-46.500;2022-11-30T10:59:02;26.17;;;14.18;;
21014;SDS011;19207;-23.482;-46.500;2022-11-30T11:01:52;24.17;;;13.30;;
21014;SDS011;19207;-23.482;-46.500;2022-11-30T11:04:38;30.50;;;12.15;;
21014;SDS011;19207;-23.482;-46.500;2022-11-30T11:07:25;25.17;;;12.57;;
21014;SDS011;19207;-23.482;-46.500;2022-11-30T11:10:14;22.17;;;11.82;;
21014;SDS011;19207;-23.482;-46.500;2022-11-30T11:13:02;20.60;;;10.77;;
21014;SDS011;19207;-23.482;-46.500;2022-11-30T11:15:59;21.30;;;10.02;;
21014;SDS011;19207;-23.482;-46.500;2022-11-30T11:21:38;27.10;;;12.37;;
21014;SDS011;19207;-23.482;-46.500;2022-11-30T11:24:30;24.90;;;13.02;;
21014;SDS011;19207;-23.482;-46.500;2022-11-30T11:27:30;28.38;;;12.70;;
21014;SDS011;19207;-23.482;-46.500;2022-11-30T11:30:38;24.35;;;12.05;;
21014;SDS011;19207;-23.482;-46.500;2022-11-30T11:33:24;33.17;;;15.00;;
21014;SDS011;19207;-23.482;-46.500;2022-11-30T11:36:12;26.30;;;13.82;;
21014;SDS011;19207;-23.482;-46.500;2022-11-30T11:38:59;24.50;;;12.40;;
21014;SDS011;19207;-23.482;-46.500;2022-11-30T11:41:47;23.23;;;12.23;;
21014;SDS011;19207;-23.482;-46.500;2022-11-30T11:44:34;22.10;;;11.02;;
21014;SDS011;19207;-23.482;-46.500;2022-11-30T11:47:39;30.42;;;12.30;;
21014;SDS011;19207;-23.482;-46.500;2022-11-30T11:50:35;23.45;;;11.75;;
21014;SDS011;19207;-23.482;-46.500;2022-11-30T11:53:22;27.25;;;11.18;;
21014;SDS011;19207;-23.482;-46.500;2022-11-30T11:56:15;22.95;;;9.82;;
21014;SDS011;19207;-23.482;-46.500;2022-11-30T12:04:55;15.82;;;8.60;;
21014;SDS011;19207;-23.482;-46.500;2022-11-30T12:10:48;17.35;;;8.55;;
21014;SDS011;19207;-23.482;-46.500;2022-11-30T12:13:37;18.48;;;9.88;;
21014;SDS011;19207;-23.482;-46.500;2022-11-30T12:19:47;24.23;;;11.82;;
21014;SDS011;19207;-23.482;-46.500;2022-11-30T12:38:09;23.02;;;9.52;;
21014;SDS011;19207;-23.482;-46.500;2022-11-30T12:41:08;16.87;;;8.93;;
21014;SDS011;19207;-23.482;-46.500;2022-11-30T12:44:06;16.58;;;9.63;;
21014;SDS011;19207;-23.482;-46.500;2022-11-30T12:46:57;18.02;;;7.68;;
21014;SDS011;19207;-23.482;-46.500;2022-11-30T12:53:11;15.23;;;8.90;;
21014;SDS011;19207;-23.482;-46.500;2022-11-30T13:10:42;19.17;;;8.48;;
21014;SDS011;19207;-23.482;-46.500;2022-11-30T13:13:31;17.02;;;8.20;;
21014;SDS011;19207;-23.482;-46.500;2022-11-30T13:16:19;16.05;;;8.63;;
21014;SDS011;19207;-23.482;-46.500;2022-11-30T13:19:22;23.25;;;9.38;;
21014;SDS011;19207;-23.482;-46.500;2022-11-30T13:22:27;18.62;;;8.65;;
21014;SDS011;19207;-23.482;-46.500;2022-11-30T13:36:39;21.42;;;9.50;;
21014;SDS011;19207;-23.482;-46.500;2022-11-30T13:39:32;20.55;;;8.23;;
21014;SDS011;19207;-23.482;-46.500;2022-11-30T13:51:06;18.08;;;8.77;;
21014;SDS011;19207;-23.482;-46.500;2022-11-30T13:53:53;17.52;;;8.73;;
21014;SDS011;19207;-23.482;-46.500;2022-11-30T13:56:59;26.25;;;9.52;;
21014;SDS011;19207;-23.482;-46.500;2022-11-30T13:59:47;26.50;;;10.63;;
21014;SDS011;19207;-23.482;-46.500;2022-11-30T14:05:36;23.38;;;9.60;;
21014;SDS011;19207;-23.482;-46.500;2022-11-30T14:17:20;25.05;;;12.85;;
21014;SDS011;19207;-23.482;-46.500;2022-11-30T14:20:17;21.42;;;10.07;;
21014;SDS011;19207;-23.482;-46.500;2022-11-30T14:23:05;23.17;;;9.20;;
21014;SDS011;19207;-23.482;-46.500;2022-11-30T14:25:52;18.23;;;8.57;;
21014;SDS011;19207;-23.482;-46.500;2022-11-30T14:29:23;18.48;;;9.13;;
21014;SDS011;19207;-23.482;-46.500;2022-11-30T14:35:10;16.40;;;8.73;;
21014;SDS011;19207;-23.482;-46.500;2022-11-30T14:37:57;22.60;;;9.55;;
21014;SDS011;19207;-23.482;-46.500;2022-11-30T14:40:51;19.75;;;9.07;;
21014;SDS011;19207;-23.482;-46.500;2022-11-30T14:43:38;19.48;;;8.73;;
21014;SDS011;19207;-23.482;-46.500;2022-11-30T14:46:24;22.23;;;9.05;;
21014;SDS011;19207;-23.482;-46.500;2022-11-30T14:49:12;20.23;;;9.00;;
21014;SDS011;19207;-23.482;-46.500;2022-11-30T14:52:03;14.45;;;5.37;;
21014;SDS011;19207;-23.482;-46.500;2022-11-30T14:54:55;5.60;;;2.78;;
21014;SDS011;19207;-23.482;-46.500;2022-11-30T14:57:49;6.53;;;2.55;;
21014;SDS011;19207;-23.482;-46.500;2022-11-30T15:00:41;5.07;;;2.50;;
21014;SDS011;19207;-23.482;-46.500;2022-11-30T15:03:31;5.07;;;2.45;;
21014;SDS011;19207;-23.482;-46.500;2022-11-30T15:06:18;8.02;;;3.25;;
21014;SDS011;19207;-23.482;-46.500;2022-11-30T15:09:11;12.98;;;3.20;;
21014;SDS011;19207;-23.482;-46.500;2022-11-30T15:11:58;6.75;;;3.03;;
21014;SDS011;19207;-23.482;-46.500;2022-11-30T15:15:04;10.13;;;2.47;;
21014;SDS011;19207;-23.482;-46.500;2022-11-30T15:20:41;7.07;;;2.47;;
21014;SDS011;19207;-23.482;-46.500;2022-11-30T15:23:29;10.15;;;3.20;;
21014;SDS011;19207;-23.482;-46.500;2022-11-30T15:29:28;4.05;;;2.45;;
21014;SDS011;19207;-23.482;-46.500;2022-11-30T15:32:17;3.92;;;2.55;;
21014;SDS011;19207;-23.482;-46.500;2022-11-30T15:35:04;4.30;;;2.40;;
21014;SDS011;19207;-23.482;-46.500;2022-11-30T15:37:51;8.80;;;2.75;;
21014;SDS011;19207;-23.482;-46.500;2022-11-30T15:40:38;13.35;;;2.70;;
21014;SDS011;19207;-23.482;-46.500;2022-11-30T15:43:24;6.05;;;2.75;;
21014;SDS011;19207;-23.482;-46.500;2022-11-30T15:49:17;6.20;;;4.35;;
21014;SDS011;19207;-23.482;-46.500;2022-11-30T15:52:14;4.43;;;3.00;;
21014;SDS011;19207;-23.482;-46.500;2022-11-30T15:55:02;4.05;;;2.80;;
21014;SDS011;19207;-23.482;-46.500;2022-11-30T15:57:56;6.47;;;2.97;;
21014;SDS011;19207;-23.482;-46.500;2022-11-30T16:00:56;4.43;;;2.97;;
21014;SDS011;19207;-23.482;-46.500;2022-11-30T16:06:45;7.37;;;3.65;;
21014;SDS011;19207;-23.482;-46.500;2022-11-30T16:09:32;6.53;;;2.87;;
21014;SDS011;19207;-23.482;-46.500;2022-11-30T16:12:25;12.13;;;4.35;;
21014;SDS011;19207;-23.482;-46.500;2022-11-30T16:15:15;6.50;;;3.65;;
21014;SDS011;19207;-23.482;-46.500;2022-11-30T16:18:15;6.28;;;3.65;;
21014;SDS011;19207;-23.482;-46.500;2022-11-30T16:21:02;6.70;;;3.58;;
21014;SDS011;19207;-23.482;-46.500;2022-11-30T16:23:49;9.43;;;3.50;;
21014;SDS011;19207;-23.482;-46.500;2022-11-30T16:26:36;9.60;;;3.55;;
21014;SDS011;19207;-23.482;-46.500;2022-11-30T16:29:22;7.82;;;3.37;;
21014;SDS011;19207;-23.482;-46.500;2022-11-30T16:32:09;9.57;;;3.22;;
21014;SDS011;19207;-23.482;-46.500;2022-11-30T16:34:56;3.95;;;3.55;;
21014;SDS011;19207;-23.482;-46.500;2022-11-30T16:37:42;6.90;;;2.60;;
21014;SDS011;19207;-23.482;-46.500;2022-11-30T16:40:29;5.72;;;2.80;;
21014;SDS011;19207;-23.482;-46.500;2022-11-30T16:43:16;3.85;;;2.70;;
21014;SDS011;19207;-23.482;-46.500;2022-11-30T16:46:03;9.68;;;3.37;;
21014;SDS011;19207;-23.482;-46.500;2022-11-30T16:48:50;3.78;;;2.30;;
21014;SDS011;19207;-23.482;-46.500;2022-11-30T16:51:36;7.82;;;2.70;;
21014;SDS011;19207;-23.482;-46.500;2022-11-30T16:54:22;5.53;;;3.03;;
21014;SDS011;19207;-23.482;-46.500;2022-11-30T16:57:09;2.95;;;2.33;;
21014;SDS011;19207;-23.482;-46.500;2022-11-30T16:59:56;7.80;;;3.10;;
21014;SDS011;19207;-23.482;-46.500;2022-11-30T17:05:36;7.20;;;3.70;;
21014;SDS011;19207;-23.482;-46.500;2022-11-30T17:08:22;6.05;;;3.30;;
21014;SDS011;19207;-23.482;-46.500;2022-11-30T17:11:16;12.00;;;3.25;;
21014;SDS011;19207;-23.482;-46.500;2022-11-30T17:14:03;8.52;;;3.00;;
21014;SDS011;19207;-23.482;-46.500;2022-11-30T17:16:49;8.88;;;4.45;;
21014;SDS011;19207;-23.482;-46.500;2022-11-30T17:19:36;5.10;;;3.83;;
21014;SDS011;19207;-23.482;-46.500;2022-11-30T17:22:23;16.02;;;4.35;;
21014;SDS011;19207;-23.482;-46.500;2022-11-30T17:25:14;22.35;;;5.45;;
21014;SDS011;19207;-23.482;-46.500;2022-11-30T17:28:02;11.57;;;4.97;;
21014;SDS011;19207;-23.482;-46.500;2022-11-30T17:30:48;10.35;;;3.75;;
21014;SDS011;19207;-23.482;-46.500;2022-11-30T17:33:35;12.18;;;2.60;;
21014;SDS011;19207;-23.482;-46.500;2022-11-30T17:36:21;5.57;;;3.30;;
21014;SDS011;19207;-23.482;-46.500;2022-11-30T17:39:08;6.32;;;2.53;;
21014;SDS011;19207;-23.482;-46.500;2022-11-30T17:41:54;7.75;;;2.10;;
21014;SDS011;19207;-23.482;-46.500;2022-11-30T17:44:41;11.65;;;3.05;;
21014;SDS011;19207;-23.482;-46.500;2022-11-30T17:47:28;9.77;;;3.05;;
21014;SDS011;19207;-23.482;-46.500;2022-11-30T17:50:14;5.87;;;2.78;;
21014;SDS011;19207;-23.482;-46.500;2022-11-30T17:53:00;4.70;;;2.50;;
21014;SDS011;19207;-23.482;-46.500;2022-11-30T17:55:49;8.93;;;2.72;;
21014;SDS011;19207;-23.482;-46.500;2022-11-30T17:58:36;8.30;;;2.92;;
21014;SDS011;19207;-23.482;-46.500;2022-11-30T18:01:24;9.07;;;2.78;;
21014;SDS011;19207;-23.482;-46.500;2022-11-30T18:04:11;8.65;;;2.92;;
21014;SDS011;19207;-23.482;-46.500;2022-11-30T18:06:58;5.80;;;2.78;;
21014;SDS011;19207;-23.482;-46.500;2022-11-30T18:09:44;5.35;;;2.53;;
21014;SDS011;19207;-23.482;-46.500;2022-11-30T18:12:31;3.65;;;1.90;;
21014;SDS011;19207;-23.482;-46.500;2022-11-30T18:15:18;4.18;;;2.47;;
21014;SDS011;19207;-23.482;-46.500;2022-11-30T18:18:04;8.18;;;2.62;;